createdAt,value
2023-01-13T00:04:06.832Z,60
2023-01-13T00:09:08.152Z,60
2023-01-13T00:14:10.081Z,60
2023-01-13T00:19:11.715Z,59
2023-01-13T00:24:13.586Z,59
2023-01-13T00:29:15.826Z,59
2023-01-13T00:34:17.451Z,59
2023-01-13T00:39:19.313Z,59
2023-01-13T00:44:20.888Z,59
2023-01-13T00:49:22.103Z,59
2023-01-13T00:54:23.382Z,59
2023-01-13T00:59:24.724Z,59
2023-01-13T01:04:26.743Z,58
2023-01-13T01:09:28.659Z,58
2023-01-13T01:14:30.679Z,59
2023-01-13T01:19:31.989Z,59
2023-01-13T01:24:33.561Z,59
2023-01-13T01:29:35.509Z,59
2023-01-13T01:34:36.747Z,59
2023-01-13T01:39:38.774Z,58
2023-01-13T01:44:40.571Z,58
2023-01-13T01:49:42.708Z,58
2023-01-13T01:54:44.651Z,58
2023-01-13T01:59:46.719Z,58
2023-01-13T02:04:47.995Z,57
2023-01-13T02:09:49.591Z,57
2023-01-13T02:14:51.179Z,57
2023-01-13T02:19:52.813Z,57
2023-01-13T02:24:54.692Z,57
2023-01-13T02:25:01.066Z,57
2023-01-13T02:30:02.908Z,57
2023-01-13T02:35:04.640Z,57
2023-01-13T02:40:06.010Z,57
2023-01-13T02:45:07.679Z,57
2023-01-13T02:50:09.588Z,57
2023-01-13T02:55:11.460Z,56
2023-01-13T03:00:13.262Z,56
2023-01-13T03:05:14.783Z,56
2023-01-13T03:10:16.122Z,56
2023-01-13T03:20:19.058Z,55
2023-01-13T03:30:21.856Z,54
2023-01-13T03:35:23.098Z,54
2023-01-13T03:50:27.553Z,53
2023-01-13T03:55:29.110Z,53
2023-01-13T04:10:34.327Z,52
2023-01-13T04:15:36.148Z,52
2023-01-13T04:20:37.762Z,52
2023-01-13T04:25:39.736Z,52
2023-01-13T04:30:41.669Z,52
2023-01-13T04:35:43.235Z,52
2023-01-13T04:40:44.806Z,51
2023-01-13T04:45:46.681Z,51
2023-01-13T04:50:48.117Z,51
2023-01-13T04:55:49.879Z,51
2023-01-13T05:00:52.086Z,51
2023-01-13T05:05:54.016Z,51
2023-01-13T05:10:55.418Z,52
2023-01-13T05:15:56.951Z,51
2023-01-13T05:20:58.675Z,51
2023-01-13T05:26:00.600Z,51
2023-01-13T05:31:02.403Z,51
2023-01-13T05:36:03.544Z,51
2023-01-13T05:41:05.344Z,51
2023-01-13T05:46:07.335Z,51
2023-01-13T05:51:09.294Z,51
2023-01-13T05:56:11.070Z,51
2023-01-13T06:01:13.037Z,51
2023-01-13T06:06:14.577Z,51
2023-01-13T06:11:15.960Z,52
2023-01-13T06:16:17.209Z,52
2023-01-13T06:21:19.236Z,52
2023-01-13T06:26:20.890Z,52
2023-01-13T06:31:22.513Z,52
2023-01-13T06:36:23.907Z,52
2023-01-13T06:41:25.079Z,53
2023-01-13T06:46:27.470Z,54
2023-01-13T06:51:29.024Z,54
2023-01-13T06:56:31.150Z,55
2023-01-13T07:01:33.454Z,55
2023-01-13T07:06:34.743Z,55
2023-01-13T07:11:36.057Z,55
2023-01-13T07:16:37.625Z,55
2023-01-13T07:21:39.264Z,55
2023-01-13T07:26:41.438Z,56
2023-01-13T07:31:42.906Z,55
2023-01-13T07:36:44.630Z,55
2023-01-13T07:41:46.468Z,54
2023-01-13T07:46:48.462Z,54
2023-01-13T07:51:49.749Z,54
2023-01-13T07:56:51.199Z,54
2023-01-13T08:01:52.602Z,54
2023-01-13T08:06:54.337Z,53
2023-01-13T08:11:55.609Z,54
2023-01-13T08:16:56.968Z,54
2023-01-13T08:21:58.807Z,54
2023-01-13T08:27:00.427Z,54
2023-01-13T08:32:02.594Z,54
2023-01-13T08:37:03.776Z,55
2023-01-13T08:42:05.721Z,54
2023-01-13T08:47:07.805Z,53
2023-01-13T08:52:09.844Z,54
2023-01-13T08:57:11.515Z,54
2023-01-13T09:02:12.988Z,53
2023-01-13T09:07:14.625Z,53
2023-01-13T09:12:16.414Z,52
2023-01-13T09:17:18.429Z,51
2023-01-13T09:22:20.246Z,52
2023-01-13T09:27:21.607Z,51
2023-01-13T09:32:23.491Z,51
2023-01-13T09:37:24.833Z,51
2023-01-13T09:42:26.361Z,51
2023-01-13T09:47:28.528Z,50
2023-01-13T09:52:29.133Z,49
2023-01-13T09:57:31.125Z,48
2023-01-13T10:02:32.779Z,48
2023-01-13T10:07:34.873Z,46
2023-01-13T10:12:36.112Z,46
2023-01-13T10:17:38.230Z,46
2023-01-13T10:22:39.694Z,44
2023-01-13T10:27:41.827Z,40
2023-01-13T10:32:43.127Z,38
2023-01-13T10:37:44.737Z,37
2023-01-13T10:42:47.026Z,36
2023-01-13T10:47:49.062Z,36
2023-01-13T10:52:50.725Z,38
2023-01-13T10:57:52.232Z,40
2023-01-13T11:02:54.200Z,42
2023-01-13T11:07:55.737Z,43
2023-01-13T11:12:57.483Z,44
2023-01-13T11:17:59.672Z,45
2023-01-13T11:23:01.551Z,46
2023-01-13T11:28:03.675Z,47
2023-01-13T11:33:04.904Z,48
2023-01-13T11:38:06.689Z,49
2023-01-13T11:43:08.038Z,50
2023-01-13T11:48:10.235Z,50
2023-01-13T11:53:11.422Z,50
2023-01-13T11:58:12.779Z,51
2023-01-13T12:03:14.294Z,51
2023-01-13T12:08:15.688Z,50
2023-01-13T12:13:17.192Z,50
2023-01-13T12:18:19.232Z,51
2023-01-13T12:23:20.735Z,51
2023-01-13T12:28:22.671Z,52
2023-01-13T12:33:24.787Z,55
2023-01-13T12:38:25.996Z,54
2023-01-13T12:43:27.903Z,55
2023-01-13T12:48:29.537Z,55
2023-01-13T12:53:30.794Z,54
2023-01-13T12:58:32.659Z,54
2023-01-13T13:03:34.372Z,55
2023-01-13T13:08:35.973Z,55
2023-01-13T13:13:37.660Z,54
2023-01-13T13:18:39.639Z,55
2023-01-13T13:23:41.621Z,55
2023-01-13T13:28:43.832Z,55
2023-01-13T13:33:45.720Z,56
2023-01-13T13:38:47.126Z,56
2023-01-13T13:43:49.243Z,56
2023-01-13T13:48:50.813Z,56
2023-01-13T13:53:51.961Z,56
2023-01-13T13:58:53.223Z,59
2023-01-13T14:03:54.861Z,62
2023-01-13T14:08:56.034Z,64
2023-01-13T14:13:57.268Z,66
2023-01-13T14:18:59.345Z,66
2023-01-13T14:24:01.181Z,67
2023-01-13T14:29:03.242Z,67
2023-01-13T14:34:31.574Z,66
2023-01-13T14:39:07.325Z,67
2023-01-13T14:44:09.337Z,67
2023-01-13T14:49:11.054Z,67
2023-01-13T14:54:12.750Z,67
2023-01-13T14:59:14.356Z,67
2023-01-13T15:04:15.857Z,67
2023-01-13T15:09:17.547Z,67
2023-01-13T15:14:19.337Z,67
2023-01-13T15:19:21.490Z,68
2023-01-13T15:24:23.531Z,67
2023-01-13T15:29:25.017Z,67
2023-01-13T15:34:26.770Z,67
2023-01-13T15:39:28.055Z,67
2023-01-13T15:44:29.547Z,66
2023-01-13T15:49:31.546Z,66
2023-01-13T15:54:33.015Z,67
2023-01-13T15:59:34.644Z,67
2023-01-13T16:04:36.506Z,66
2023-01-13T16:09:38.252Z,67
2023-01-13T16:14:40.391Z,67
2023-01-13T16:19:41.764Z,67
2023-01-13T16:24:43.659Z,67
2023-01-13T16:29:45.596Z,67
2023-01-13T16:34:47.158Z,67
2023-01-13T16:39:48.422Z,67
2023-01-13T16:44:50.249Z,67
2023-01-13T16:49:52.311Z,67
2023-01-13T16:54:53.907Z,68
2023-01-13T16:59:56.100Z,67
2023-01-13T17:04:57.173Z,67
2023-01-13T17:09:58.431Z,67
2023-01-13T17:15:00.499Z,67
2023-01-13T17:20:01.915Z,67
2023-01-13T17:25:04.012Z,67
2023-01-13T17:30:05.145Z,68
2023-01-13T17:35:07.320Z,68
2023-01-13T17:40:09.462Z,68
2023-01-13T17:45:10.782Z,68
2023-01-13T17:50:12.170Z,68
2023-01-13T17:55:13.469Z,68
2023-01-13T18:00:15.535Z,68
2023-01-13T18:10:18.193Z,68
2023-01-13T18:25:23.085Z,70
2023-01-13T18:30:24.810Z,69
2023-01-13T18:40:28.713Z,70
2023-01-13T18:50:31.362Z,71
2023-01-13T18:55:32.890Z,71
2023-01-13T19:00:34.248Z,70
2023-01-13T19:05:36.323Z,69
2023-01-13T19:10:38.091Z,68
2023-01-13T19:15:45.966Z,67
2023-01-13T19:20:48.042Z,66
2023-01-13T19:25:49.516Z,66
2023-01-13T19:30:51.243Z,66
2023-01-13T19:35:53.019Z,66
2023-01-13T19:40:55.150Z,65
2023-01-13T19:45:57.164Z,66
2023-01-13T19:50:59.079Z,66
2023-01-13T19:56:01.052Z,66
2023-01-13T20:01:02.826Z,66
2023-01-13T20:06:04.296Z,66
2023-01-13T20:11:05.787Z,66
2023-01-13T20:16:07.502Z,66
2023-01-13T20:21:09.634Z,66
2023-01-13T20:26:11.618Z,67
2023-01-13T20:31:13.287Z,68
2023-01-13T20:36:15.308Z,68
2023-01-13T20:41:16.962Z,68
2023-01-13T20:46:18.776Z,68
2023-01-13T20:51:19.985Z,68
2023-01-13T20:56:21.581Z,69
2023-01-13T21:01:23.267Z,69
2023-01-13T21:06:24.458Z,68
2023-01-13T21:11:26.203Z,68
2023-01-13T21:16:27.706Z,69
2023-01-13T21:21:29.170Z,69
2023-01-13T21:26:31.172Z,69
2023-01-13T21:31:32.911Z,69
2023-01-13T21:36:34.161Z,68
2023-01-13T21:41:35.979Z,68
2023-01-13T21:46:37.263Z,68
2023-01-13T21:51:38.681Z,68
2023-01-13T21:56:39.846Z,68
2023-01-13T22:01:45.961Z,68
2023-01-13T22:06:42.714Z,69
2023-01-13T22:11:44.120Z,68
2023-01-13T22:16:45.967Z,69
2023-01-13T22:21:47.233Z,69
2023-01-13T22:26:48.765Z,69
2023-01-13T22:31:50.357Z,70
2023-01-13T22:36:52.346Z,70
2023-01-13T22:41:54.204Z,70
2023-01-13T22:46:55.942Z,70
2023-01-13T22:51:58.041Z,70
2023-01-13T22:56:59.215Z,71
2023-01-13T23:02:00.758Z,71
2023-01-13T23:07:02.143Z,71
2023-01-13T23:12:04.192Z,71
2023-01-13T23:17:06.409Z,72
2023-01-13T23:22:07.498Z,72
2023-01-13T23:27:09.590Z,72
2023-01-13T23:32:10.983Z,72
2023-01-13T23:37:12.266Z,72
2023-01-13T23:42:13.618Z,72
2023-01-13T23:47:15.681Z,72
2023-01-13T23:52:17.117Z,72
2023-01-13T23:57:18.637Z,73
